createdAt,value
2022-12-27T00:00:07.636Z,7.20
2022-12-27T00:05:07.828Z,7.10
2022-12-27T00:10:01.307Z,7.10
2022-12-27T00:14:53.358Z,7.10
2022-12-27T00:19:45.556Z,7.00
2022-12-27T00:24:40.627Z,7.00
2022-12-27T00:29:33.632Z,7.00
2022-12-27T00:34:25.864Z,6.90
2022-12-27T00:39:18.036Z,6.90
2022-12-27T00:44:10.953Z,7.00
2022-12-27T00:49:03.289Z,7.00
2022-12-27T00:53:55.899Z,7.00
2022-12-27T00:58:48.204Z,7.00
2022-12-27T01:03:41.558Z,7.00
2022-12-27T01:08:34.022Z,7.10
2022-12-27T01:13:26.231Z,7.10
2022-12-27T01:18:18.307Z,7.00
2022-12-27T01:23:12.380Z,6.90
2022-12-27T01:28:05.995Z,6.80
2022-12-27T01:32:58.636Z,6.80
2022-12-27T01:37:53.561Z,6.80
2022-12-27T01:42:55.687Z,6.70
2022-12-27T01:47:56.722Z,6.80
2022-12-27T01:53:12.117Z,6.70
2022-12-27T01:58:11.420Z,6.70
2022-12-27T02:03:05.937Z,6.60
2022-12-27T02:08:17.267Z,6.50
2022-12-27T02:13:11.728Z,6.50
2022-12-27T02:18:06.730Z,6.20
2022-12-27T02:24:10.164Z,5.90
2022-12-27T02:29:26.337Z,5.60
2022-12-27T02:34:44.893Z,5.40
2022-12-27T02:39:48.125Z,5.40
2022-12-27T02:45:00.890Z,5.60
2022-12-27T02:50:19.431Z,5.80
2022-12-27T02:55:33.955Z,6.00
2022-12-27T03:00:46.392Z,6.10
2022-12-27T03:06:16.847Z,6.20
2022-12-27T03:11:27.393Z,6.10
2022-12-27T03:16:21.153Z,6.00
2022-12-27T03:27:01.367Z,5.50
2022-12-27T03:32:21.221Z,5.30
2022-12-27T03:37:40.585Z,5.30
2022-12-27T03:42:57.617Z,5.40
2022-12-27T03:47:57.137Z,5.40
2022-12-27T03:53:10.973Z,5.20
2022-12-27T03:58:07.231Z,4.80
2022-12-27T04:03:02.939Z,4.70
2022-12-27T04:08:15.701Z,4.90
2022-12-27T04:13:27.943Z,5.10
2022-12-27T04:18:40.726Z,5.10
2022-12-27T04:23:53.890Z,5.10
2022-12-27T04:29:06.288Z,5.10
2022-12-27T04:34:18.426Z,5.10
2022-12-27T04:39:11.999Z,4.80
2022-12-27T04:44:26.787Z,4.50
2022-12-27T04:49:45.325Z,4.50
2022-12-27T04:55:02.551Z,4.30
2022-12-27T05:00:18.163Z,4.10
2022-12-27T05:05:13.054Z,3.90
2022-12-27T05:10:27.817Z,4.00
2022-12-27T05:15:23.321Z,4.20
2022-12-27T05:20:19.100Z,4.50
2022-12-27T05:25:34.687Z,4.70
2022-12-27T05:30:33.512Z,4.80
2022-12-27T05:35:27.908Z,5.00
2022-12-27T05:40:24.177Z,5.10
2022-12-27T05:45:19.040Z,5.20
2022-12-27T05:50:12.268Z,5.30
2022-12-27T05:55:09.037Z,5.20
2022-12-27T06:00:11.087Z,5.30
2022-12-27T06:05:13.956Z,5.30
2022-12-27T06:10:11.118Z,5.30
2022-12-27T06:15:09.104Z,5.40
2022-12-27T06:20:04.547Z,5.30
2022-12-27T06:24:59.420Z,5.30
2022-12-27T06:29:54.994Z,5.30
2022-12-27T06:34:50.262Z,5.20
2022-12-27T06:39:54.665Z,4.80
2022-12-27T06:44:58.457Z,4.60
2022-12-27T06:49:52.299Z,4.20
2022-12-27T06:54:47.572Z,4.10
2022-12-27T07:04:56.545Z,4.10
2022-12-27T07:09:50.889Z,4.00
2022-12-27T07:14:44.012Z,4.10
2022-12-27T07:19:38.679Z,4.00
2022-12-27T07:24:33.903Z,4.00
2022-12-27T07:29:28.984Z,4.10
2022-12-27T07:34:32.535Z,4.00
2022-12-27T07:39:26.456Z,4.20
2022-12-27T07:44:21.475Z,4.30
2022-12-27T07:49:25.132Z,4.40
2022-12-27T07:54:19.916Z,4.50
2022-12-27T07:59:16.272Z,4.70
2022-12-27T08:04:11.353Z,4.80
2022-12-27T08:09:08.145Z,4.90
2022-12-27T08:14:04.403Z,5.10
2022-12-27T08:19:08.237Z,5.50
2022-12-27T08:24:02.153Z,5.70
2022-12-27T08:28:56.235Z,5.90
2022-12-27T08:33:58.600Z,6.10
2022-12-27T08:38:55.459Z,6.30
2022-12-27T08:43:51.517Z,6.50
2022-12-27T08:48:48.016Z,6.60
2022-12-27T08:53:42.403Z,6.60
2022-12-27T08:58:37.257Z,6.70
2022-12-27T09:03:36.319Z,6.60
2022-12-27T09:08:31.692Z,6.50
2022-12-27T09:13:26.731Z,6.50
2022-12-27T09:18:23.739Z,6.50
2022-12-27T09:23:19.865Z,6.60
2022-12-27T09:28:19.796Z,6.90
2022-12-27T09:33:14.063Z,6.90
2022-12-27T09:38:07.915Z,6.80
2022-12-27T09:43:22.369Z,7.50
2022-12-27T09:48:34.380Z,7.60
2022-12-27T09:53:49.580Z,9.10
2022-12-27T09:58:51.831Z,9.50
2022-12-27T10:03:45.731Z,8.70
2022-12-27T10:09:22.507Z,8.50
2022-12-27T10:14:42.081Z,8.50
2022-12-27T10:19:44.441Z,10.50
2022-12-27T10:24:58.386Z,13.60
2022-12-27T10:29:54.779Z,12.50
2022-12-27T10:34:55.124Z,11.50
2022-12-27T10:39:49.581Z,10.90
2022-12-27T10:44:45.084Z,12.30
2022-12-27T10:49:40.296Z,15.20
2022-12-27T10:54:33.904Z,17.50
2022-12-27T10:59:30.741Z,18.90
2022-12-27T11:04:28.865Z,19.50
2022-12-27T11:09:50.782Z,20.30
2022-12-27T11:15:16.432Z,19.90
2022-12-27T11:20:13.065Z,19.40
2022-12-27T11:25:16.296Z,19.10
2022-12-27T11:30:26.638Z,19.70
2022-12-27T11:35:32.060Z,19.70
2022-12-27T11:40:40.344Z,18.60
2022-12-27T11:45:52.147Z,18.50
2022-12-27T11:51:11.173Z,18.10
2022-12-27T11:56:10.473Z,15.50
2022-12-27T12:01:30.894Z,13.10
2022-12-27T12:06:28.784Z,11.70
2022-12-27T12:11:55.379Z,10.80
2022-12-27T12:17:06.371Z,10.70
2022-12-27T12:22:10.746Z,10.90
2022-12-27T12:27:28.486Z,10.80
2022-12-27T12:32:28.792Z,10.40
2022-12-27T12:37:59.422Z,10.00
2022-12-27T12:43:22.386Z,9.80
2022-12-27T12:48:53.158Z,9.60
2022-12-27T12:54:08.203Z,9.60
2022-12-27T12:59:40.982Z,9.70
2022-12-27T13:05:32.323Z,9.90
2022-12-27T13:10:46.773Z,9.60
2022-12-27T13:16:15.598Z,9.70
2022-12-27T13:21:25.644Z,9.60
2022-12-27T13:26:39.900Z,9.40
2022-12-27T13:31:56.692Z,9.30
2022-12-27T13:36:57.955Z,9.20
2022-12-27T13:42:15.989Z,9.00
2022-12-27T13:47:21.666Z,8.90
2022-12-27T13:52:27.259Z,8.80
2022-12-27T13:57:57.036Z,8.70
2022-12-27T14:03:08.814Z,8.80
2022-12-27T14:08:25.324Z,8.90
2022-12-27T14:13:25.842Z,8.80
2022-12-27T14:18:37.193Z,8.80
2022-12-27T14:23:46.987Z,8.80
2022-12-27T14:29:15.580Z,8.70
2022-12-27T14:34:29.341Z,8.60
2022-12-27T14:39:26.150Z,8.40
2022-12-27T14:44:24.150Z,8.30
2022-12-27T14:49:35.102Z,8.20
2022-12-27T14:55:13.059Z,8.20
2022-12-27T15:00:21.514Z,8.10
2022-12-27T15:05:23.105Z,8.10
2022-12-27T15:10:25.056Z,8.10
2022-12-27T15:16:11.734Z,7.90
2022-12-27T15:21:14.684Z,7.70
2022-12-27T15:26:46.287Z,7.60
2022-12-27T15:32:02.463Z,7.50
2022-12-27T15:37:35.283Z,7.10
2022-12-27T15:42:48.929Z,6.90
2022-12-27T15:48:06.689Z,6.60
2022-12-27T15:53:16.963Z,6.30
2022-12-27T15:58:47.661Z,6.00
2022-12-27T16:04:21.386Z,5.80
2022-12-27T16:09:27.130Z,5.50
2022-12-27T16:14:44.108Z,5.40
2022-12-27T16:20:12.354Z,5.40
2022-12-27T16:25:42.522Z,5.30
2022-12-27T16:30:57.007Z,5.10
2022-12-27T16:36:06.017Z,4.90
2022-12-27T16:41:24.107Z,4.80
2022-12-27T16:46:56.669Z,4.80
2022-12-27T16:52:18.333Z,4.70
2022-12-27T16:57:26.856Z,4.70
2022-12-27T17:02:52.705Z,4.60
2022-12-27T17:08:18.022Z,4.50
2022-12-27T17:13:32.919Z,4.30
2022-12-27T17:18:30.605Z,4.20
2022-12-27T17:23:26.548Z,4.00
2022-12-27T17:28:35.658Z,3.90
2022-12-27T17:33:40.168Z,3.90
2022-12-27T17:39:06.161Z,3.90
2022-12-27T17:44:27.763Z,3.90
2022-12-27T17:49:27.339Z,3.90
2022-12-27T17:54:46.082Z,3.80
2022-12-27T17:59:45.684Z,3.80
2022-12-27T18:04:46.905Z,3.90
2022-12-27T18:10:07.556Z,3.90
2022-12-27T18:15:08.346Z,4.10
2022-12-27T18:20:29.943Z,4.10
2022-12-27T18:25:32.526Z,4.00
2022-12-27T18:30:27.640Z,4.00
2022-12-27T18:35:24.426Z,4.10
2022-12-27T18:40:24.272Z,4.10
2022-12-27T18:45:29.440Z,4.00
2022-12-27T18:50:34.815Z,4.10
2022-12-27T18:55:32.814Z,4.20
2022-12-27T19:00:27.591Z,4.10
2022-12-27T19:05:26.123Z,4.30
2022-12-27T19:10:23.870Z,4.40
2022-12-27T19:15:42.877Z,4.40
2022-12-27T19:20:38.338Z,4.50
2022-12-27T19:25:40.795Z,4.50
2022-12-27T19:30:38.706Z,4.60
2022-12-27T19:35:33.986Z,4.90
2022-12-27T19:40:29.719Z,5.00
2022-12-27T19:45:29.852Z,4.90
2022-12-27T19:50:27.628Z,5.00
2022-12-27T19:55:27.062Z,5.10
2022-12-27T20:00:28.427Z,4.90
2022-12-27T20:06:11.654Z,4.90
2022-12-27T20:10:39.952Z,5.00
2022-12-27T20:15:33.722Z,5.10
2022-12-27T20:20:33.065Z,5.00
2022-12-27T20:25:33.937Z,4.80
2022-12-27T20:30:50.319Z,4.70
2022-12-27T20:35:46.624Z,4.60
2022-12-27T20:40:42.769Z,4.80
2022-12-27T20:45:38.050Z,4.90
2022-12-27T20:50:32.314Z,4.70
2022-12-27T20:55:26.097Z,4.40
2022-12-27T21:00:26.987Z,4.20
2022-12-27T21:05:21.782Z,4.00
2022-12-27T21:10:16.423Z,3.90
2022-12-27T21:15:12.736Z,4.00
2022-12-27T21:20:11.855Z,4.20
2022-12-27T21:25:08.521Z,4.40
2022-12-27T21:30:03.343Z,4.40
2022-12-27T21:34:57.767Z,4.20
2022-12-27T21:39:54.744Z,4.10
2022-12-27T21:44:50.111Z,4.00
2022-12-27T21:49:45.465Z,4.00
2022-12-27T21:54:43.597Z,3.80
2022-12-27T21:59:47.553Z,3.70
2022-12-27T22:04:41.828Z,3.70
2022-12-27T22:09:48.816Z,3.60
2022-12-27T22:14:47.546Z,3.60
2022-12-27T22:19:47.891Z,3.60
2022-12-27T22:24:45.411Z,3.60
2022-12-27T22:29:41.365Z,3.50
2022-12-27T22:34:39.097Z,3.40
2022-12-27T22:39:34.411Z,3.40
2022-12-27T22:44:31.552Z,3.30
2022-12-27T22:49:25.782Z,3.20
2022-12-27T22:54:20.874Z,3.20
2022-12-27T22:59:35.221Z,3.00
2022-12-27T23:04:30.263Z,3.10
2022-12-27T23:09:27.201Z,3.20
2022-12-27T23:14:23.294Z,3.20
2022-12-27T23:19:21.036Z,3.20
2022-12-27T23:24:22.229Z,3.20
2022-12-27T23:29:19.928Z,3.10
2022-12-27T23:34:21.242Z,2.90
2022-12-27T23:39:19.091Z,2.90
2022-12-27T23:44:14.368Z,2.80
2022-12-27T23:49:09.330Z,2.80
2022-12-27T23:54:02.248Z,2.60
2022-12-27T23:58:59.278Z,2.50
